• Join FlightAware (Why Join?)
  • Login
  • US Flag 
Rudolph Flight #1: Arrived! 
10:34AM EST


 

Airport Tracker/Info


-or-


 

Live Flight TrackerFlight Track Log ✈ UAL395 ✈ 03-Oct-2013 ✈ KEWR - KFLL

Flight Track Log - Related Links

Times and Time Zones

All times are in EDT time to prevent confusion due to time zone crossing. See the UAL395 flight status page for this flight to view local times or setup timezone preferences in your user account.

Time Position Orientation Groundspeed Altitude Reporting Facility
EDT Latitude Longitude Course Direction KTS MPH feet Rate Location/Type
03:01PM 40.6500 -74.1833 224° Southwest 168 193 1,500  Level New York TRACON
03:02PM 40.6000 -74.2167 207° Southwest 218 251 3,800 1,440 Climbing New York TRACON
03:04PM 40.4753 -74.2414 189° South 256 295 6,000 660 Climbing New York Center
03:05PM 40.1380 -74.4411 223° Southwest  Level Estimated
03:05PM 40.4011 -74.2050 160° South 276 318 6,000  Level New York Center
03:06PM 40.0270 -74.4950 224° Southwest  Level Estimated
03:06PM 40.3253 -74.1686 160° South 290 334 8,200  Level New York Center
03:07PM 39.9160 -74.5488 224° Southwest  Level Estimated
03:07PM 40.2456 -74.1836 188° South 280 322 10,700  Level New York Center
03:08PM 40.1553 -74.2092 192° South 314 361 12,700 2,520 Climbing New York Center
03:09PM 40.0731 -74.2347 193° South 339 390 15,800 2,580 Climbing New York Center
03:10PM 39.9844 -74.2792 201° Southwest 339 390 17,900 2,100 Climbing New York Center
03:12PM 39.8019 -74.4517 216° Southwest 368 423 22,600 2,040 Climbing Washington Center
03:13PM 39.7297 -74.5475 226° Southwest 368 423 24,300 1,560 Climbing Washington Center
03:14PM 39.6556 -74.6481 226° Southwest 374 430 25,700 1,260 Climbing Washington Center
03:15PM 39.5772 -74.7514 225° Southwest 387 445 26,900 1,320 Climbing Washington Center
03:16PM 39.4986 -74.8547 225° Southwest 398 458 28,400 1,260 Climbing Washington Center
03:17PM 39.4181 -74.9603 225° Southwest 409 471 29,500 1,080 Climbing Washington Center
03:18PM 39.3331 -75.0631 223° Southwest 409 471 30,600 1,020 Climbing Washington Center
03:19PM 39.2292 -75.1386 209° Southwest 421 484 31,600 1,200 Climbing Washington Center
03:20PM 39.1147 -75.1903 199° South 421 484 33,100 1,500 Climbing Washington Center
03:21PM 39.0022 -75.2389 199° South 432 497 34,600 1,200 Climbing Washington Center
03:22PM 38.8919 -75.2875 199° South 432 497 35,500 900 Climbing Washington Center
03:23PM 38.7775 -75.3333 197° South 427 491 36,500 960 Climbing Washington Center
03:24PM 38.6650 -75.3789 198° South 427 491 37,500 720 Climbing Washington Center
03:25PM 38.5544 -75.4272 199° South 427 491 38,000 180 Climbing Washington Center
03:26PM 38.4442 -75.4725 198° South 427 491 37,900 -60 Descending Washington Center
03:27PM 38.3336 -75.5203 199° South 427 491 37,900  Level Washington Center
03:28PM 38.2272 -75.5811 204° Southwest 427 491 38,000  Climbing Washington Center
03:29PM 38.1231 -75.6444 206° Southwest 427 491 38,000 -60 Level Washington Center
03:30PM 38.0314 -75.7103 210° Southwest 427 491 37,900 -60 Descending Washington Center
03:31PM 37.9269 -75.7761 206° Southwest 421 484 37,900  Level Washington Center
03:32PM 37.8081 -75.8414 203° Southwest 421 484 38,000  Climbing Washington Center
03:33PM 37.7161 -75.9069 209° Southwest 421 484 37,900 -60 Descending Washington Center
03:34PM 37.6117 -75.9692 205° Southwest 426 490 37,900  Level Washington Center
03:35PM 37.5069 -76.0342 206° Southwest 426 490 37,900  Level Washington Center
03:36PM 37.4025 -76.0989 206° Southwest 426 490 37,900  Level Washington Center
03:37PM 37.2833 -76.1608 202° Southwest 426 490 38,000  Climbing Washington Center
03:38PM 37.1744 -76.2253 205° Southwest 426 490 38,000  Level Washington Center
03:39PM 37.0697 -76.2919 207° Southwest 426 490 38,000  Level Washington Center
03:40PM 36.9653 -76.3561 206° Southwest 426 490 38,000  Level Washington Center
03:41PM 36.8606 -76.4175 205° Southwest 426 490 38,000  Level Washington Center
03:42PM 36.7556 -76.4836 207° Southwest 426 490 38,000 -60 Level Washington Center
03:43PM 36.6489 -76.5497 206° Southwest 432 497 37,900 -60 Descending Washington Center
03:44PM 36.5461 -76.6106 205° Southwest 426 490 37,900  Level Washington Center
03:45PM 36.4433 -76.6711 205° Southwest 426 490 37,900  Level Washington Center
03:46PM 36.3406 -76.7317 205° Southwest 421 484 37,900  Level Washington Center
03:47PM 36.2356 -76.7919 205° Southwest 421 484 37,900  Level Washington Center
03:48PM 36.1347 -76.8522 206° Southwest 421 484 37,900  Level Washington Center
03:49PM 36.0319 -76.9122 205° Southwest 416 479 37,900  Level Washington Center
03:50PM 35.9292 -76.9694 204° Southwest 410 472 37,900  Level Washington Center
03:51PM 35.8261 -77.0317 206° Southwest 405 466 38,000  Climbing Washington Center
03:52PM 35.7231 -77.0914 205° Southwest 405 466 37,900  Descending Washington Center
03:53PM 35.6242 -77.1508 206° Southwest 400 460 38,000  Climbing Washington Center
03:54PM 35.5214 -77.2075 204° Southwest 400 460 38,000  Level Washington Center
03:55PM 35.4161 -77.2692 206° Southwest 405 466 38,000  Level Washington Center
03:56PM 35.3108 -77.3281 205° Southwest 411 473 38,000  Level Washington Center
03:57PM 35.2119 -77.3842 205° Southwest 404 465 38,000  Level Washington Center
03:58PM 35.1047 -77.4453 205° Southwest 404 465 38,000  Level Washington Center
03:59PM 35.0014 -77.5064 206° Southwest 404 465 38,000  Level Washington Center
04:00PM 34.8983 -77.5622 204° Southwest 404 465 38,000 -60 Level Washington Center
04:01PM 34.8078 -77.6183 207° Southwest 404 465 37,900 -60 Descending Washington Center
04:02PM 34.7044 -77.6789 206° Southwest 404 465 37,900  Level Washington Center
04:03PM 34.6011 -77.7367 205° Southwest 404 465 37,900  Level Washington Center
04:04PM 34.4978 -77.7944 205° Southwest 404 465 37,900  Level Washington Center
04:05PM 34.3967 -77.8522 205° Southwest 404 465 37,900  Level Washington Center
04:08PM 34.1542 -77.9317 195° South 431 496 38,000  Climbing Jacksonville Center
04:09PM 34.0406 -77.9608 192° South 431 496 38,000  Level Jacksonville Center
04:10PM 33.9292 -77.9994 196° South 431 496 38,000  Level Jacksonville Center
04:11PM 33.8156 -78.0283 192° South 431 496 38,000  Level Jacksonville Center
04:12PM 33.7000 -78.0622 194° South 431 496 38,000 -60 Level Jacksonville Center
04:13PM 33.5844 -78.0961 194° South 431 496 37,900 -60 Descending Jacksonville Center
04:14PM 33.4711 -78.1294 194° South 431 496 37,900  Level Jacksonville Center
04:15PM 33.3553 -78.1606 193° South 431 496 37,900  Level Jacksonville Center
04:16PM 33.2419 -78.1939 194° South 431 496 37,900  Level Jacksonville Center
04:17PM 33.1261 -78.2272 194° South 431 496 37,900  Level Jacksonville Center
04:18PM 33.0106 -78.2581 193° South 431 496 38,000  Climbing Jacksonville Center
04:19PM 32.8928 -78.2914 193° South 431 496 38,000 -60 Level Jacksonville Center
04:20PM 32.7792 -78.3269 195° South 431 496 37,900 -60 Descending Jacksonville Center
04:21PM 32.6633 -78.3547 191° South 431 496 37,900  Level Jacksonville Center
04:22PM 32.5500 -78.3900 195° South 431 496 37,900  Level Jacksonville Center
04:23PM 32.4342 -78.4206 193° South 431 496 37,900  Level Jacksonville Center
04:24PM 32.3081 -78.4586 194° South 431 496 38,000  Climbing Jacksonville Center
04:25PM 32.1922 -78.4911 193° South 431 496 38,000 -60 Level Jacksonville Center
04:26PM 32.0725 -78.5264 194° South 436 502 37,900  Descending Jacksonville Center
04:27PM 31.9547 -78.5614 194° South 436 502 38,000  Climbing Jacksonville Center
04:28PM 31.8369 -78.5961 194° South 431 496 37,900 -60 Descending Jacksonville Center
04:29PM 31.7211 -78.6283 193° South 431 496 37,900  Level Jacksonville Center
04:30PM 31.6014 -78.6656 195° South 437 503 37,900  Level Jacksonville Center
04:31PM 31.4814 -78.7003 194° South 444 511 37,900  Level Jacksonville Center
04:32PM 31.3675 -78.7297 192° South 444 511 37,900  Level Jacksonville Center
04:33PM 31.2478 -78.7667 195° South 449 517 38,000  Climbing Jacksonville Center
04:34PM 31.1275 -78.7961 192° South 440 506 37,900 -60 Descending Jacksonville Center
04:35PM 31.0075 -78.8306 194° South 445 512 37,900  Level Jacksonville Center
04:36PM 30.8875 -78.8647 194° South 450 518 37,900  Level Jacksonville Center
04:37PM 30.7675 -78.8989 194° South 450 518 37,900  Level Jacksonville Center
04:39PM 30.5211 -78.9692 194° South 456 525 37,900  Level Miami Center
04:40PM 30.4039 -79.0006 193° South 456 525 38,000  Climbing Miami Center
04:41PM 30.2889 -79.0319 193° South 447 514 37,900 -60 Descending Miami Center
04:42PM 30.1611 -79.0631 192° South 447 514 37,900  Level Miami Center
04:43PM 30.0461 -79.0917 192° South 442 509 37,900  Level Miami Center
04:44PM 29.9392 -79.1253 195° South 442 509 38,000  Climbing Miami Center
04:45PM 29.8219 -79.1564 193° South 442 509 38,000  Level Miami Center
04:46PM 29.7006 -79.1897 193° South 442 509 38,000  Level Miami Center
04:47PM 29.5792 -79.2158 191° South 442 509 38,000  Level Miami Center
04:48PM 29.4575 -79.2442 191° South 448 516 38,000  Level Miami Center
04:49PM 29.3361 -79.2769 193° South 448 516 38,000 -360 Level Miami Center
04:50PM 29.2228 -79.3103 194° South 448 516 37,300 -900 Descending Miami Center
04:51PM 29.0972 -79.3361 190° South 448 516 36,300 -660 Descending Miami Center
04:52PM 28.9800 -79.3689 194° South 448 516 36,000 -180 Descending Miami Center
04:53PM 28.8583 -79.3969 191° South 448 516 36,000  Level Miami Center
04:54PM 28.7389 -79.4275 193° South 448 516 36,000  Level Miami Center
04:55PM 28.6172 -79.4553 191° South 448 516 36,000  Level Miami Center
04:56PM 28.4936 -79.4881 193° South 448 516 36,000  Level Miami Center
04:57PM 28.3742 -79.5181 192° South 448 516 36,000  Level Miami Center
04:58PM 28.2567 -79.5483 193° South 448 516 36,000  Level Miami Center
04:59PM 28.1331 -79.5761 191° South 448 516 36,000  Level Miami Center
05:00PM 28.0133 -79.6039 192° South 448 516 36,000 -480 Level Miami Center
05:01PM 27.8897 -79.6336 192° South 448 516 35,100 -1,080 Descending Miami Center
05:02PM 27.7581 -79.6444 184° South 448 516 33,900 -1,080 Descending Miami Center
05:03PM 27.6431 -79.6464 181° South 448 516 33,000 -1,620 Descending Miami Center
05:04PM 27.5197 -79.6528 183° South 448 516 30,700 -2,580 Descending Miami Center
05:05PM 27.3819 -79.6589 182° South 448 516 27,900 -2,640 Descending Miami Center
05:06PM 27.2586 -79.6653 183° South 448 516 25,500 -2,400 Descending Miami Center
05:07PM 27.1375 -79.6692 182° South 443 510 23,200 -2,520 Descending Miami Center
05:08PM 27.0286 -79.6736 182° South 437 503 20,500 -2,700 Descending Miami Center
05:09PM 26.9178 -79.6781 182° South 429 494 17,800 -2,700 Descending Miami Center
05:10PM 26.7944 -79.6842 183° South 415 478 15,100 -2,220 Descending Miami Center
05:10PM 26.7464 -79.6925 189° South 387 445 14,600 -2,040 Descending Miami Center
05:11PM 26.7022 -79.7078 197° South 389 448 13,100 -3,060 Descending Miami Center
05:11PM 26.6114 -79.7519 203° Southwest 352 405 10,300 -2,940 Descending Miami Center
05:12PM 26.6031 -79.7542 193° South 362 417 10,200 -1,380 Descending Miami Center
05:12PM 26.5292 -79.7917 204° Southwest 296 341 8,900 -1,200 Descending Miami Center
05:13PM 26.5314 -79.7872 61° Northeast 325 374 9,000 -900 Climbing Miami Center
05:14PM 26.4514 -79.8244 203° Southwest 295 339 8,000 -1,020 Descending Miami Center
05:14PM 26.4492 -79.8269 225° Southwest 301 346 8,000  Level Miami Center
05:14PM 26.3839 -79.8600 204° Southwest 293 337 8,000  Level Miami Center
05:15PM 26.3817 -79.8600 180° South 301 346 8,000 -900 Level Miami Center
05:15PM 26.3283 -79.9119 221° Southwest 287 330 7,200 -1,140 Descending Miami Center
05:16PM 26.3136 -79.9231 214° Southwest 296 341 6,900 -1,080 Descending Miami Center
05:16PM 26.2644 -79.9750 223° Southwest 283 326 6,000 -1,020 Descending Miami Center
05:17PM 26.2600 -79.9797 224° Southwest 289 333 5,900  Descending Miami Center
05:18PM 26.2025 -80.0314 219° Southwest 229 264 6,000 60 Climbing Miami Center
05:18PM 26.2047 -80.0314 360° North 276 318 6,000  Level Miami Center
05:19PM 26.1678 -80.0906 235° Southwest 252 290 6,000 -240 Level Miami Center
05:20PM 26.1497 -80.1572 253° West 236 272 5,600 -420 Descending Miami Center
05:20PM 26.1475 -80.1617 241° Southwest 236 272 5,600 -1,620 Level Miami Center
05:21PM 26.1481 -80.2289 271° West 235 270 4,100 -840 Descending Miami Center
05:22PM 26.1483 -80.3075 270° West 213 245 4,000 -660 Descending Miami Center
05:23PM 26.1039 -80.3294 204° Southwest 184 212 2,800 -1,080 Descending Miami Center
05:24PM 26.0736 -80.2822 126° Southeast 177 204 1,900 -840 Descending Miami Center
05:25PM 26.0747 -80.2339 89° East 135 155 1,200 -720 Descending Miami Center
05:26PM 26.0736 -80.1944 92° East 125 144 500 -720 Descending Miami Center
05:28PM 26.0667 -80.1500 103° East  Level FlightAware Approximate